createdAt,value
2019-01-23T00:01:43.568Z,22.40
2019-01-23T00:06:28.453Z,20.97
2019-01-23T00:11:13.062Z,20.60
2019-01-23T00:15:58.021Z,20.90
2019-01-23T00:20:42.860Z,21.60
2019-01-23T00:25:27.690Z,20.70
2019-01-23T00:30:12.434Z,20.03
2019-01-23T00:34:57.533Z,21.53
2019-01-23T00:39:44.708Z,21.50
2019-01-23T00:44:29.478Z,21.40
2019-01-23T00:49:17.216Z,20.53
2019-01-23T00:54:01.998Z,21.87
2019-01-23T00:58:49.286Z,19.33
2019-01-23T01:03:33.085Z,21.80
2019-01-23T01:08:17.654Z,21.73
2019-01-23T01:13:02.218Z,20.67
2019-01-23T01:17:46.758Z,21.17
2019-01-23T01:22:31.566Z,21.90
2019-01-23T01:27:16.181Z,22.30
2019-01-23T01:32:03.613Z,22.03
2019-01-23T01:36:48.182Z,24.90
2019-01-23T01:41:32.943Z,24.63
2019-01-23T01:46:17.563Z,26.17
2019-01-23T01:51:02.205Z,26.10
2019-01-23T01:55:46.919Z,26.90
2019-01-23T02:00:31.570Z,27.43
2019-01-23T02:05:16.687Z,28.23
2019-01-23T02:10:01.439Z,28.87
2019-01-23T02:14:46.024Z,28.67
2019-01-23T02:19:30.674Z,31.13
2019-01-23T02:24:15.191Z,31.77
2019-01-23T02:28:59.856Z,32.23
2019-01-23T02:33:47.322Z,31.00
2019-01-23T02:38:31.982Z,30.77
2019-01-23T02:43:16.734Z,30.37
2019-01-23T02:48:01.431Z,30.90
2019-01-23T02:52:46.089Z,30.30
2019-01-23T02:57:30.730Z,31.33
2019-01-23T03:02:15.408Z,33.73
2019-01-23T03:07:00.121Z,31.87
2019-01-23T03:11:44.892Z,32.20
2019-01-23T03:16:29.696Z,34.20
2019-01-23T03:21:14.359Z,33.60
2019-01-23T03:25:59.139Z,31.03
2019-01-23T03:30:43.741Z,30.93
2019-01-23T03:35:28.514Z,33.53
2019-01-23T03:40:15.482Z,32.03
2019-01-23T03:45:00.336Z,34.50
2019-01-23T03:49:44.938Z,34.20
2019-01-23T03:54:29.559Z,33.60
2019-01-23T03:59:14.273Z,36.10
2019-01-23T04:03:58.961Z,33.13
2019-01-23T04:08:43.782Z,36.13
2019-01-23T04:13:28.330Z,36.50
2019-01-23T04:18:12.914Z,34.03
2019-01-23T04:22:57.592Z,36.80
2019-01-23T04:27:42.302Z,35.47
2019-01-23T04:32:27.249Z,35.57
2019-01-23T04:37:12.029Z,35.53
2019-01-23T04:41:56.661Z,33.93
2019-01-23T04:46:41.212Z,34.27
2019-01-23T04:51:44.953Z,32.57
2019-01-23T04:56:29.544Z,32.37
2019-01-23T05:01:14.354Z,31.83
2019-01-23T05:05:59.236Z,30.33
2019-01-23T05:10:43.807Z,32.40
2019-01-23T05:15:28.725Z,28.77
2019-01-23T05:20:13.745Z,30.77
2019-01-23T05:24:58.371Z,29.57
2019-01-23T05:29:43.027Z,28.60
2019-01-23T05:34:27.802Z,31.17
2019-01-23T05:39:12.447Z,27.50
2019-01-23T05:43:57.045Z,27.87
2019-01-23T05:48:42.033Z,27.03
2019-01-23T05:53:26.685Z,27.47
2019-01-23T05:58:12.583Z,27.97
2019-01-23T06:02:57.207Z,26.70
2019-01-23T06:07:42.109Z,28.77
2019-01-23T06:12:27.109Z,31.60
2019-01-23T06:17:11.924Z,29.73
2019-01-23T06:21:59.561Z,28.07
2019-01-23T06:26:44.254Z,28.80
2019-01-23T06:31:29.101Z,29.00
2019-01-23T06:36:13.747Z,29.20
2019-01-23T06:40:58.433Z,30.03
2019-01-23T06:45:43.389Z,34.40
2019-01-23T06:50:28.192Z,38.07
2019-01-23T06:55:12.999Z,37.13
2019-01-23T06:59:57.833Z,38.80
2019-01-23T07:04:42.517Z,37.13
2019-01-23T07:09:27.299Z,32.40
2019-01-23T07:14:12.179Z,30.67
2019-01-23T07:18:56.917Z,31.17
2019-01-23T07:23:41.356Z,28.03
2019-01-23T07:28:28.672Z,29.60
2019-01-23T07:33:13.316Z,30.07
2019-01-23T07:37:58.035Z,28.17
2019-01-23T07:42:42.755Z,35.33
2019-01-23T07:47:27.471Z,26.97
2019-01-23T07:52:12.025Z,52.10
2019-01-23T07:56:59.555Z,34.60
2019-01-23T08:01:44.254Z,31.30
2019-01-23T08:06:29.010Z,29.63
2019-01-23T08:11:13.777Z,34.30
2019-01-23T08:16:00.937Z,32.80
2019-01-23T08:20:45.658Z,31.10
2019-01-23T08:25:30.359Z,93.57
2019-01-23T08:30:16.192Z,48.30
2019-01-23T08:35:03.281Z,46.10
2019-01-23T08:39:47.847Z,52.90
2019-01-23T08:44:32.468Z,43.37
2019-01-23T08:49:17.172Z,35.73
2019-01-23T08:54:01.711Z,32.57
2019-01-23T08:58:46.513Z,35.33
2019-01-23T09:03:31.241Z,33.63
2019-01-23T09:08:15.963Z,33.50
2019-01-23T09:13:00.771Z,35.57
2019-01-23T09:17:45.410Z,39.50
2019-01-23T09:22:30.067Z,31.80
2019-01-23T09:27:14.639Z,29.43
2019-01-23T09:32:30.856Z,31.50
2019-01-23T09:37:31.767Z,31.47
2019-01-23T09:42:57.317Z,44.57
2019-01-23T09:47:56.419Z,32.13
2019-01-23T09:53:32.445Z,30.33
2019-01-23T09:58:17.001Z,29.03
2019-01-23T10:03:01.834Z,26.10
2019-01-23T10:07:46.585Z,27.67
2019-01-23T10:12:31.277Z,25.33
2019-01-23T10:17:16.117Z,28.77
2019-01-23T10:22:00.806Z,31.17
2019-01-23T10:26:45.367Z,52.30
2019-01-23T10:31:30.011Z,27.90
2019-01-23T10:36:14.625Z,23.67
2019-01-23T10:40:59.165Z,20.73
2019-01-23T10:45:43.681Z,22.47
2019-01-23T10:50:28.245Z,22.53
2019-01-23T10:55:13.185Z,27.27
2019-01-23T10:59:57.748Z,25.70
2019-01-23T11:04:42.587Z,25.63
2019-01-23T11:09:27.503Z,24.80
2019-01-23T11:14:12.077Z,24.70
2019-01-23T11:18:56.947Z,76.73
2019-01-23T11:23:41.673Z,22.97
2019-01-23T11:28:26.357Z,21.33
2019-01-23T11:33:11.078Z,21.93
2019-01-23T11:37:55.581Z,19.17
2019-01-23T11:42:40.265Z,22.97
2019-01-23T11:47:24.798Z,19.87
2019-01-23T11:52:09.669Z,31.63
2019-01-23T11:56:54.470Z,24.63
2019-01-23T12:01:39.208Z,19.43
2019-01-23T12:06:23.851Z,19.77
2019-01-23T12:11:09.783Z,23.27
2019-01-23T12:15:54.431Z,23.57
2019-01-23T12:20:38.984Z,22.93
2019-01-23T12:25:23.501Z,21.10
2019-01-23T12:30:12.161Z,21.47
2019-01-23T12:34:56.761Z,22.23
2019-01-23T12:39:45.898Z,21.67
2019-01-23T12:44:30.416Z,22.13
2019-01-23T12:49:15.184Z,22.20
2019-01-23T12:53:59.967Z,21.50
2019-01-23T12:58:44.711Z,21.80
2019-01-23T13:03:29.403Z,20.93
2019-01-23T13:08:14.176Z,20.97
2019-01-23T13:12:59.164Z,18.23
2019-01-23T13:17:43.867Z,18.63
2019-01-23T13:22:28.455Z,17.67
2019-01-23T13:27:13.243Z,15.63
2019-01-23T13:31:57.848Z,16.73
2019-01-23T13:36:42.522Z,18.87
2019-01-23T13:41:27.108Z,41.73
2019-01-23T13:46:11.788Z,42.50
2019-01-23T13:50:56.448Z,43.10
2019-01-23T13:55:41.125Z,42.87
2019-01-23T14:00:28.971Z,43.10
2019-01-23T14:05:14.505Z,42.37
2019-01-23T14:09:59.211Z,65.80
2019-01-23T14:14:43.804Z,54.70
2019-01-23T14:19:28.461Z,45.67
2019-01-23T14:24:13.097Z,49.03
2019-01-23T14:28:57.850Z,51.03
2019-01-23T14:33:42.502Z,59.70
2019-01-23T14:38:27.235Z,52.93
2019-01-23T14:43:11.928Z,53.80
2019-01-23T14:47:56.799Z,51.90
2019-01-23T14:52:41.607Z,58.37
2019-01-23T14:57:26.278Z,53.30
2019-01-23T15:02:11.305Z,51.83
2019-01-23T15:06:55.875Z,52.47
2019-01-23T15:11:40.595Z,51.40
2019-01-23T15:16:25.328Z,49.33
2019-01-23T15:21:09.931Z,51.83
2019-01-23T15:25:54.700Z,52.43
2019-01-23T15:30:40.689Z,47.77
2019-01-23T15:35:25.495Z,47.97
2019-01-23T15:40:13.048Z,49.80
2019-01-23T15:44:57.834Z,56.67
2019-01-23T15:49:42.935Z,46.57
2019-01-23T15:54:27.649Z,49.33
2019-01-23T15:59:12.570Z,48.80
2019-01-23T16:03:58.534Z,43.67
2019-01-23T16:08:43.123Z,44.53
2019-01-23T16:13:27.751Z,44.53
2019-01-23T16:18:12.672Z,44.40
2019-01-23T16:22:58.059Z,43.30
2019-01-23T16:27:42.667Z,43.17
2019-01-23T16:32:31.492Z,42.23
2019-01-23T16:37:13.859Z,44.13
2019-01-23T16:41:58.531Z,43.57
2019-01-23T16:46:43.160Z,44.97
2019-01-23T16:51:27.766Z,46.60
2019-01-23T16:56:13.198Z,45.20
2019-01-23T17:00:57.791Z,45.57
2019-01-23T17:05:42.503Z,47.23
2019-01-23T17:10:27.505Z,43.27
2019-01-23T17:15:13.543Z,46.67
2019-01-23T17:19:59.216Z,44.07
2019-01-23T17:24:43.911Z,48.07
2019-01-23T17:29:30.719Z,44.33
2019-01-23T17:34:14.944Z,51.70
2019-01-23T17:38:59.793Z,50.23
2019-01-23T17:43:47.775Z,41.20
2019-01-23T17:48:32.669Z,41.03
2019-01-23T17:53:17.492Z,37.07
2019-01-23T17:58:02.479Z,38.07
2019-01-23T18:02:52.675Z,40.37
2019-01-23T18:07:33.650Z,34.97
2019-01-23T18:12:18.377Z,35.47
2019-01-23T18:17:03.146Z,37.63
2019-01-23T18:21:47.944Z,36.33
2019-01-23T18:26:37.556Z,31.80
2019-01-23T18:31:58.897Z,37.83
2019-01-23T18:37:21.187Z,36.13
2019-01-23T18:42:34.631Z,41.93
2019-01-23T18:48:13.694Z,46.43
2019-01-23T18:52:58.553Z,46.87
2019-01-23T18:57:43.291Z,37.07
2019-01-23T19:02:28.037Z,40.50
2019-01-23T19:07:12.983Z,33.23
2019-01-23T19:11:57.799Z,31.03
2019-01-23T19:16:42.528Z,33.17
2019-01-23T19:21:27.199Z,30.43
2019-01-23T19:26:11.874Z,30.67
2019-01-23T19:30:56.389Z,29.83
2019-01-23T19:35:41.084Z,31.33
2019-01-23T19:40:25.735Z,27.60
2019-01-23T19:45:14.679Z,29.60
2019-01-23T19:49:59.330Z,30.63
2019-01-23T19:54:43.919Z,28.43
2019-01-23T19:59:28.405Z,28.17
2019-01-23T20:04:12.979Z,27.63
2019-01-23T20:08:57.459Z,28.03
2019-01-23T20:13:42.362Z,47.30
2019-01-23T20:18:27.617Z,29.87
2019-01-23T20:23:12.274Z,30.00
2019-01-23T20:28:23.645Z,31.40
2019-01-23T20:39:10.661Z,42.10
2019-01-23T20:44:18.545Z,37.47
2019-01-23T20:50:01.718Z,38.77
2019-01-23T20:54:46.427Z,31.67
2019-01-23T20:59:45.364Z,33.13
2019-01-23T21:04:40.906Z,36.10
2019-01-23T21:09:25.443Z,32.53
2019-01-23T21:14:45.617Z,34.00
2019-01-23T21:19:46.561Z,30.93
2019-01-23T21:24:31.244Z,33.87
2019-01-23T21:29:20.364Z,53.93
2019-01-23T21:34:05.293Z,59.30
2019-01-23T21:38:49.912Z,53.20
2019-01-23T21:43:34.449Z,57.03
2019-01-23T21:48:19.539Z,52.23
2019-01-23T21:53:04.136Z,54.17
2019-01-23T21:57:48.879Z,47.60
2019-01-23T22:02:33.663Z,45.27
2019-01-23T22:07:18.247Z,43.73
2019-01-23T22:12:02.951Z,43.03
2019-01-23T22:16:47.588Z,41.50
2019-01-23T22:21:32.289Z,43.27
2019-01-23T22:26:17.147Z,46.80
2019-01-23T22:31:01.771Z,38.83
2019-01-23T22:35:46.551Z,38.47
2019-01-23T22:40:31.370Z,37.33
2019-01-23T22:45:17.681Z,37.47
2019-01-23T22:50:02.683Z,37.43
2019-01-23T22:54:47.354Z,35.60
2019-01-23T22:59:32.047Z,36.80
2019-01-23T23:04:16.855Z,37.77
2019-01-23T23:09:01.485Z,36.70
2019-01-23T23:13:46.387Z,39.30
2019-01-23T23:18:31.279Z,37.00
2019-01-23T23:23:15.869Z,36.43
2019-01-23T23:28:00.604Z,38.27
2019-01-23T23:32:45.281Z,35.40
2019-01-23T23:37:29.969Z,33.37
2019-01-23T23:42:14.831Z,36.47
2019-01-23T23:46:59.471Z,32.87
2019-01-23T23:51:44.132Z,36.43
2019-01-23T23:56:29.044Z,34.27
